Duncan, South Carolina
Current Conditions -  °F | °C
As of 3:53 PM on Sunday 21 Dec 2014 (Local Time) from KGSP Reporting Station
Overcast Overcast  
Wind Chill: 47°   Ceiling: 2400
Heat Index: 49°   Visibility: 10mi
Dew Point: 40°   Wind: 6mph
Humidity: 71%   Direction: 70°ENE
Pressure: 30.15"   Gusts: NA
Location:  34.94°N, 82.14°W
Report Text: KGSP 212053Z 07005KT 10SM BKN024 OVC033 09/04 A3015 RMK AO2 SLP211 T00940044 56011
Loading
Personal Weather Stations






























Interactive Weather Map New forecast layout! Learn more

10-Day Weather Forecast

Advertisements
Track Severe Weather on mobile